createdAt,value
2018-12-21T00:00:24.772Z,-0.46
2018-12-21T00:02:54.961Z,-0.52
2018-12-21T00:05:25.714Z,-0.47
2018-12-21T00:07:56.056Z,-0.34
2018-12-21T00:10:26.218Z,-0.25
2018-12-21T00:12:56.429Z,-0.06
2018-12-21T00:15:26.779Z,-0.12
2018-12-21T00:17:57.047Z,0.01
2018-12-21T00:20:27.367Z,0.12
2018-12-21T00:22:57.649Z,0.06
2018-12-21T00:25:27.837Z,0.09
2018-12-21T00:27:57.913Z,0.09
2018-12-21T00:30:27.177Z,0.20
2018-12-21T00:33:02.723Z,0.29
2018-12-21T00:35:38.227Z,0.32
2018-12-21T00:38:13.308Z,0.32
2018-12-21T00:40:48.723Z,0.22
2018-12-21T00:43:35.115Z,0.14
2018-12-21T00:46:13.778Z,0.20
2018-12-21T00:48:44.116Z,0.22
2018-12-21T00:51:14.579Z,0.21
2018-12-21T00:53:45.424Z,0.09
2018-12-21T00:56:15.536Z,-0.12
2018-12-21T00:58:45.678Z,-0.34
2018-12-21T01:01:16.052Z,-0.29
2018-12-21T01:03:46.368Z,-0.41
2018-12-21T01:06:16.832Z,-0.56
2018-12-21T01:08:47.238Z,-0.60
2018-12-21T01:11:17.608Z,-0.67
2018-12-21T01:13:47.769Z,-0.75
2018-12-21T01:16:18.371Z,-0.77
2018-12-21T01:18:48.572Z,-1.03
2018-12-21T01:21:19.237Z,-1.03
2018-12-21T01:23:50.103Z,-0.99
2018-12-21T01:26:20.520Z,-1.01
2018-12-21T01:28:51.294Z,-0.99
2018-12-21T01:31:21.580Z,-0.88
2018-12-21T01:33:51.854Z,-0.87
2018-12-21T01:36:22.374Z,-0.77
2018-12-21T01:38:52.585Z,-0.64
2018-12-21T01:41:22.904Z,-0.49
2018-12-21T01:43:53.777Z,-0.47
2018-12-21T01:46:24.080Z,-0.37
2018-12-21T01:48:54.360Z,-0.46
2018-12-21T01:51:24.689Z,-0.35
2018-12-21T01:53:54.914Z,-0.43
2018-12-21T01:56:25.283Z,-0.51
2018-12-21T01:58:55.441Z,-0.51
2018-12-21T02:01:25.662Z,-0.57
2018-12-21T02:03:55.748Z,-0.51
2018-12-21T02:06:26.127Z,-0.48
2018-12-21T02:08:56.259Z,-0.44
2018-12-21T02:11:26.602Z,-0.37
2018-12-21T02:13:56.710Z,-0.42
2018-12-21T02:16:28.924Z,-0.51
2018-12-21T02:18:59.205Z,-0.47
2018-12-21T02:21:29.395Z,-0.45
2018-12-21T02:23:59.624Z,-0.50
2018-12-21T02:26:29.934Z,-0.56
2018-12-21T02:29:00.319Z,-0.71
2018-12-21T02:31:30.576Z,-0.83
2018-12-21T02:34:00.804Z,-0.89
2018-12-21T02:36:31.013Z,-0.86
2018-12-21T02:39:01.683Z,-0.88
2018-12-21T02:41:33.082Z,-0.82
2018-12-21T02:44:03.770Z,-0.92
2018-12-21T02:46:33.841Z,-1.04
2018-12-21T02:49:03.975Z,-1.04
2018-12-21T02:51:34.213Z,-0.94
2018-12-21T02:54:05.115Z,-0.82
2018-12-21T02:56:35.510Z,-0.75
2018-12-21T02:59:05.704Z,-0.66
2018-12-21T03:01:36.037Z,-0.56
2018-12-21T03:04:06.718Z,-0.55
2018-12-21T03:06:36.909Z,-0.59
2018-12-21T03:09:10.279Z,-0.69
2018-12-21T03:11:40.464Z,-0.72
2018-12-21T03:14:11.306Z,-0.78
2018-12-21T03:16:41.413Z,-0.81
2018-12-21T03:19:12.004Z,-0.86
2018-12-21T03:21:42.298Z,-1.00
2018-12-21T03:24:12.670Z,-1.13
2018-12-21T03:26:42.920Z,-1.23
2018-12-21T03:29:13.194Z,-1.19
2018-12-21T03:31:43.349Z,-1.23
2018-12-21T03:34:13.506Z,-1.34
2018-12-21T03:36:43.724Z,-1.30
2018-12-21T03:39:14.747Z,-1.40
2018-12-21T03:41:44.912Z,-1.51
2018-12-21T03:44:15.164Z,-1.46
2018-12-21T03:46:45.324Z,-1.50
2018-12-21T03:49:15.585Z,-1.47
2018-12-21T03:51:45.964Z,-1.47
2018-12-21T03:54:16.288Z,-1.44
2018-12-21T03:56:46.693Z,-1.38
2018-12-21T03:59:16.959Z,-1.28
2018-12-21T04:01:47.189Z,-1.24
2018-12-21T04:04:17.555Z,-1.20
2018-12-21T04:06:47.901Z,-1.13
2018-12-21T04:09:18.083Z,-1.09
2018-12-21T04:11:48.383Z,-1.16
2018-12-21T04:14:18.800Z,-1.25
2018-12-21T04:16:50.318Z,-1.36
2018-12-21T04:19:20.567Z,-1.34
2018-12-21T04:21:50.940Z,-1.40
2018-12-21T04:24:21.224Z,-1.47
2018-12-21T04:26:52.823Z,-1.51
2018-12-21T04:29:23.104Z,-1.65
2018-12-21T04:31:53.291Z,-1.73
2018-12-21T04:34:23.557Z,-1.67
2018-12-21T04:36:54.969Z,-1.55
2018-12-21T04:39:25.224Z,-1.61
2018-12-21T04:41:55.489Z,-1.67
2018-12-21T04:44:26.250Z,-1.70
2018-12-21T04:46:57.192Z,-1.68
2018-12-21T04:49:27.361Z,-1.65
2018-12-21T04:51:57.690Z,-1.48
2018-12-21T04:54:28.307Z,-1.33
2018-12-21T04:56:58.731Z,-1.28
2018-12-21T04:59:28.952Z,-1.18
2018-12-21T05:01:59.201Z,-1.11
2018-12-21T05:04:29.544Z,-1.07
2018-12-21T05:07:00.098Z,-0.90
2018-12-21T05:09:31.364Z,-0.78
2018-12-21T05:12:01.844Z,-0.67
2018-12-21T05:14:33.726Z,-0.74
2018-12-21T05:17:03.899Z,-0.87
2018-12-21T05:19:34.816Z,-1.02
2018-12-21T05:22:05.746Z,-1.19
2018-12-21T05:24:36.390Z,-1.21
2018-12-21T05:27:07.433Z,-1.27
2018-12-21T05:29:39.596Z,-1.24
2018-12-21T05:32:11.327Z,-1.18
2018-12-21T05:34:42.045Z,-1.15
2018-12-21T05:37:13.364Z,-1.14
2018-12-21T05:39:44.402Z,-0.95
2018-12-21T05:42:14.702Z,-0.84
2018-12-21T05:44:45.345Z,-0.77
2018-12-21T05:47:17.869Z,-0.60
2018-12-21T05:49:48.579Z,-0.56
2018-12-21T05:52:19.294Z,-0.48
2018-12-21T05:54:50.065Z,-0.50
2018-12-21T05:57:20.731Z,-0.53
2018-12-21T05:59:52.201Z,-0.57
2018-12-21T06:02:24.339Z,-0.62
2018-12-21T06:04:55.530Z,-0.57
2018-12-21T06:07:26.145Z,-0.58
2018-12-21T06:09:56.466Z,-0.51
2018-12-21T06:12:27.176Z,-0.45
2018-12-21T06:14:59.011Z,-0.34
2018-12-21T06:17:29.791Z,-0.42
2018-12-21T06:20:01.285Z,-0.36
2018-12-21T06:22:32.482Z,-0.34
2018-12-21T06:25:03.854Z,-0.46
2018-12-21T06:27:34.952Z,-0.63
2018-12-21T06:30:06.898Z,-0.72
2018-12-21T06:32:40.022Z,-0.79
2018-12-21T06:35:10.956Z,-0.86
2018-12-21T06:37:41.148Z,-0.92
2018-12-21T06:40:11.989Z,-0.94
2018-12-21T06:42:42.985Z,-0.86
2018-12-21T06:45:14.064Z,-0.83
2018-12-21T06:47:45.046Z,-0.94
2018-12-21T06:50:18.204Z,-0.97
2018-12-21T06:52:50.122Z,-1.04
2018-12-21T06:55:21.288Z,-0.95
2018-12-21T06:57:52.300Z,-0.82
2018-12-21T07:00:23.000Z,-0.89
2018-12-21T07:02:53.734Z,-0.83
2018-12-21T07:05:25.113Z,-0.82
2018-12-21T07:07:56.080Z,-0.83
2018-12-21T07:10:26.608Z,-0.76
2018-12-21T07:12:57.387Z,-0.63
2018-12-21T07:15:28.545Z,-0.50
2018-12-21T07:18:01.925Z,-0.35
2018-12-21T07:20:34.504Z,-0.09
2018-12-21T07:23:04.720Z,0.05
2018-12-21T07:25:35.361Z,0.08
2018-12-21T07:28:05.748Z,0.14
2018-12-21T07:30:36.407Z,0.09
2018-12-21T07:33:07.542Z,0.10
2018-12-21T07:35:37.745Z,0.07
2018-12-21T07:38:08.196Z,-0.04
2018-12-21T07:40:38.467Z,-0.11
2018-12-21T07:43:10.085Z,-0.29
2018-12-21T07:45:40.699Z,-0.36
2018-12-21T07:48:11.530Z,-0.44
2018-12-21T07:50:42.681Z,-0.50
2018-12-21T07:53:13.238Z,-0.45
2018-12-21T07:55:43.926Z,-0.40
2018-12-21T07:58:14.652Z,-0.44
2018-12-21T08:00:45.520Z,-0.42
2018-12-21T08:03:16.820Z,-0.39
2018-12-21T08:05:47.419Z,-0.41
2018-12-21T08:08:19.264Z,-0.37
2018-12-21T08:10:49.808Z,-0.25
2018-12-21T08:13:20.581Z,0.00
2018-12-21T08:15:50.964Z,0.26
2018-12-21T08:18:22.971Z,0.48
2018-12-21T08:20:53.451Z,0.62
2018-12-21T08:23:24.202Z,0.72
2018-12-21T08:25:55.303Z,0.94
2018-12-21T08:28:25.997Z,1.09
2018-12-21T08:30:56.462Z,1.05
2018-12-21T08:33:27.581Z,0.96
2018-12-21T08:35:58.473Z,0.89
2018-12-21T08:38:29.277Z,0.99
2018-12-21T08:41:01.009Z,1.11
2018-12-21T08:43:31.775Z,1.22
2018-12-21T08:46:02.397Z,1.17
2018-12-21T08:48:32.951Z,1.10
2018-12-21T08:51:03.393Z,1.13
2018-12-21T08:53:36.099Z,1.25
2018-12-21T08:56:06.328Z,1.41
2018-12-21T08:58:37.799Z,1.45
2018-12-21T09:01:07.920Z,1.59
2018-12-21T09:03:38.955Z,1.34
2018-12-21T09:06:18.298Z,1.34
2018-12-21T09:08:42.905Z,1.46
2018-12-21T09:11:13.649Z,1.57
2018-12-21T09:13:43.913Z,1.66
2018-12-21T09:16:14.767Z,1.57
2018-12-21T09:18:45.338Z,1.43
2018-12-21T09:21:15.598Z,1.66
2018-12-21T09:23:46.769Z,1.73
2018-12-21T09:26:17.440Z,1.70
2018-12-21T09:28:47.807Z,1.92
2018-12-21T09:31:19.805Z,2.08
2018-12-21T09:33:50.475Z,2.22
2018-12-21T09:36:22.400Z,2.29
2018-12-21T09:38:53.519Z,2.30
2018-12-21T09:41:23.696Z,2.27
2018-12-21T09:43:54.842Z,2.17
2018-12-21T09:46:26.165Z,2.07
2018-12-21T09:48:57.085Z,2.00
2018-12-21T09:51:27.802Z,1.72
2018-12-21T09:53:59.015Z,1.58
2018-12-21T09:56:31.552Z,1.72
2018-12-21T09:59:03.564Z,1.73
2018-12-21T10:01:34.035Z,2.14
2018-12-21T10:04:05.234Z,2.59
2018-12-21T10:06:36.145Z,3.08
2018-12-21T10:09:08.959Z,3.49
2018-12-21T10:11:40.021Z,3.75
2018-12-21T10:14:11.034Z,3.94
2018-12-21T10:16:41.883Z,3.98
2018-12-21T10:19:14.285Z,4.05
2018-12-21T10:21:45.394Z,4.12
2018-12-21T10:24:18.611Z,4.35
2018-12-21T10:26:49.000Z,4.48
2018-12-21T10:29:19.931Z,4.40
2018-12-21T10:31:51.033Z,4.47
2018-12-21T10:34:22.765Z,4.47
2018-12-21T10:36:53.373Z,4.63
2018-12-21T10:39:24.769Z,4.72
2018-12-21T10:41:55.076Z,4.93
2018-12-21T10:44:26.077Z,5.02
2018-12-21T10:46:56.601Z,4.99
2018-12-21T10:49:31.872Z,5.35
2018-12-21T10:52:00.167Z,4.96
2018-12-21T10:54:30.659Z,4.98
2018-12-21T10:57:01.239Z,4.90
2018-12-21T10:59:31.862Z,4.95
2018-12-21T11:02:02.583Z,4.86
2018-12-21T11:04:33.495Z,4.69
2018-12-21T11:07:04.569Z,4.47
2018-12-21T11:09:34.799Z,4.26
2018-12-21T11:12:05.689Z,4.19
2018-12-21T11:14:36.541Z,4.14
2018-12-21T11:17:07.440Z,3.84
2018-12-21T11:19:38.020Z,3.71
2018-12-21T11:22:08.382Z,3.72
2018-12-21T11:24:39.151Z,3.82
2018-12-21T11:27:10.067Z,3.82
2018-12-21T11:29:44.642Z,3.90
2018-12-21T11:32:14.999Z,4.37
2018-12-21T11:34:45.135Z,4.77
2018-12-21T11:37:16.060Z,5.06
2018-12-21T11:39:50.800Z,5.29
2018-12-21T11:42:21.897Z,5.35
2018-12-21T11:44:53.016Z,5.39
2018-12-21T11:47:23.697Z,5.21
2018-12-21T11:49:54.789Z,4.52
2018-12-21T11:52:25.427Z,4.34
2018-12-21T11:54:55.680Z,4.14
2018-12-21T11:57:25.932Z,4.14
2018-12-21T11:59:56.759Z,4.02
2018-12-21T12:02:27.836Z,4.12
2018-12-21T12:04:58.693Z,3.69
2018-12-21T12:07:28.826Z,3.37
2018-12-21T12:09:59.853Z,3.14
2018-12-21T12:12:31.096Z,3.05
2018-12-21T12:15:02.337Z,2.63
2018-12-21T12:17:32.598Z,2.54
2018-12-21T12:20:03.961Z,2.53
2018-12-21T12:22:36.926Z,2.85
2018-12-21T12:25:07.745Z,3.03
2018-12-21T12:27:38.657Z,3.01
2018-12-21T12:30:10.564Z,3.24
2018-12-21T12:32:41.535Z,3.33
2018-12-21T12:35:12.218Z,3.27
2018-12-21T12:37:42.883Z,3.26
2018-12-21T12:40:13.814Z,3.06
2018-12-21T12:42:44.900Z,2.80
2018-12-21T12:45:15.323Z,2.36
2018-12-21T12:47:46.094Z,2.30
2018-12-21T12:50:16.677Z,2.05
2018-12-21T12:52:47.337Z,2.07
2018-12-21T12:55:17.982Z,1.99
2018-12-21T12:57:48.479Z,2.27
2018-12-21T13:00:19.305Z,2.53
2018-12-21T13:02:50.379Z,2.58
2018-12-21T13:05:21.100Z,2.69
2018-12-21T13:07:52.189Z,2.83
2018-12-21T13:10:23.130Z,3.11
2018-12-21T13:12:54.028Z,3.22
2018-12-21T13:15:25.384Z,3.24
2018-12-21T13:17:55.875Z,3.34
2018-12-21T13:20:28.390Z,3.00
2018-12-21T13:22:59.326Z,2.89
2018-12-21T13:25:30.302Z,2.80
2018-12-21T13:28:01.293Z,2.59
2018-12-21T13:30:31.858Z,2.55
2018-12-21T13:33:02.342Z,2.47
2018-12-21T13:35:33.164Z,2.48
2018-12-21T13:38:04.215Z,2.33
2018-12-21T13:40:36.200Z,2.17
2018-12-21T13:43:07.110Z,2.03
2018-12-21T13:45:37.935Z,1.79
2018-12-21T13:48:08.317Z,1.59
2018-12-21T13:50:38.884Z,1.69
2018-12-21T13:53:09.366Z,1.77
2018-12-21T13:55:39.907Z,1.74
2018-12-21T13:58:10.659Z,1.67
2018-12-21T14:00:40.907Z,1.48
2018-12-21T14:03:11.648Z,1.36
2018-12-21T14:05:42.266Z,1.31
2018-12-21T14:08:14.067Z,1.17
2018-12-21T14:10:44.993Z,1.27
2018-12-21T14:13:15.333Z,1.13
2018-12-21T14:15:46.270Z,1.03
2018-12-21T14:18:17.555Z,0.91
2018-12-21T14:20:48.901Z,0.84
2018-12-21T14:23:19.400Z,0.65
2018-12-21T14:25:50.010Z,0.79
2018-12-21T14:28:20.725Z,0.80
2018-12-21T14:30:51.014Z,0.79
2018-12-21T14:33:21.821Z,0.79
2018-12-21T14:35:52.600Z,0.81
2018-12-21T14:38:24.195Z,0.81
2018-12-21T14:40:55.066Z,0.87
2018-12-21T14:43:25.431Z,0.99
2018-12-21T14:45:56.184Z,0.94
2018-12-21T14:48:27.395Z,0.97
2018-12-21T14:50:59.469Z,1.02
2018-12-21T14:53:30.172Z,0.95
2018-12-21T14:56:00.756Z,0.87
2018-12-21T14:58:32.401Z,0.82
2018-12-21T15:01:03.341Z,0.80
2018-12-21T15:03:34.285Z,0.87
2018-12-21T15:06:04.805Z,1.00
2018-12-21T15:08:35.145Z,0.93
2018-12-21T15:11:06.362Z,0.76
2018-12-21T15:13:36.644Z,0.79
2018-12-21T15:16:07.653Z,0.93
2018-12-21T15:18:38.915Z,1.01
2018-12-21T15:21:10.151Z,1.06
2018-12-21T15:23:43.113Z,1.06
2018-12-21T15:26:14.213Z,1.06
2018-12-21T15:28:45.246Z,1.05
2018-12-21T15:31:16.928Z,0.91
2018-12-21T15:33:47.322Z,0.78
2018-12-21T15:36:17.844Z,0.66
2018-12-21T15:38:49.568Z,0.55
2018-12-21T15:41:21.783Z,0.37
2018-12-21T15:43:52.822Z,0.54
2018-12-21T15:46:23.032Z,0.12
2018-12-21T15:48:54.004Z,0.07
2018-12-21T15:51:25.016Z,0.25
2018-12-21T15:53:56.785Z,0.35
2018-12-21T15:56:27.942Z,0.35
2018-12-21T15:58:58.445Z,0.33
2018-12-21T16:01:36.904Z,0.32
2018-12-21T16:04:03.428Z,0.29
2018-12-21T16:06:35.662Z,0.28
2018-12-21T16:09:08.195Z,0.25
2018-12-21T16:11:38.740Z,0.23
2018-12-21T16:14:09.364Z,0.05
2018-12-21T16:16:40.188Z,0.00
2018-12-21T16:20:39.703Z,-0.08
2018-12-21T16:23:09.904Z,0.12
2018-12-21T16:25:41.115Z,0.22
2018-12-21T16:28:11.608Z,0.24
2018-12-21T16:30:43.074Z,0.29
2018-12-21T16:33:14.152Z,0.34
2018-12-21T16:35:44.390Z,0.41
2018-12-21T16:38:16.022Z,0.46
2018-12-21T16:40:47.552Z,0.56
2018-12-21T16:43:19.217Z,0.55
2018-12-21T16:45:50.344Z,0.50
2018-12-21T16:48:21.731Z,0.49
2018-12-21T16:50:52.708Z,0.48
2018-12-21T16:53:25.265Z,0.45
2018-12-21T16:55:55.932Z,0.33
2018-12-21T16:58:27.904Z,0.28
2018-12-21T17:00:58.509Z,0.21
2018-12-21T17:03:29.078Z,0.15
2018-12-21T17:06:00.563Z,0.21
2018-12-21T17:08:31.667Z,0.29
2018-12-21T17:11:04.325Z,0.29
2018-12-21T17:13:34.836Z,0.30
2018-12-21T17:16:05.723Z,0.16
2018-12-21T17:18:37.170Z,0.20
2018-12-21T17:21:08.024Z,0.04
2018-12-21T17:23:38.773Z,0.17
2018-12-21T17:26:09.813Z,0.18
2018-12-21T17:28:40.763Z,0.13
2018-12-21T17:31:12.023Z,0.13
2018-12-21T17:33:42.774Z,0.07
2018-12-21T17:36:17.223Z,0.04
2018-12-21T17:38:48.147Z,0.08
2018-12-21T17:41:18.849Z,-0.12
2018-12-21T17:43:49.457Z,-0.11
2018-12-21T17:46:19.830Z,-0.13
2018-12-21T17:48:50.200Z,-0.03
2018-12-21T17:51:21.246Z,0.03
2018-12-21T17:53:51.855Z,0.12
2018-12-21T17:56:29.884Z,0.13
2018-12-21T17:58:55.064Z,0.09
2018-12-21T18:01:26.058Z,0.09
2018-12-21T18:04:02.828Z,0.13
2018-12-21T18:06:33.042Z,0.14
2018-12-21T18:09:03.853Z,0.20
2018-12-21T18:11:35.186Z,0.19
2018-12-21T18:14:05.981Z,0.20
2018-12-21T18:16:36.742Z,0.07
2018-12-21T18:19:07.645Z,0.01
2018-12-21T18:22:44.343Z,-0.07
2018-12-21T18:25:17.945Z,-0.02
2018-12-21T18:27:51.261Z,-0.06
2018-12-21T18:30:33.213Z,-0.15
2018-12-21T18:33:10.505Z,-0.20
2018-12-21T18:35:38.480Z,-0.22
2018-12-21T18:38:13.301Z,-0.22
2018-12-21T18:40:44.570Z,-0.18
2018-12-21T18:43:15.412Z,-0.28
2018-12-21T18:45:46.185Z,-0.27
2018-12-21T18:48:16.942Z,-0.21
2018-12-21T18:50:47.483Z,-0.22
2018-12-21T18:53:17.773Z,-0.23
2018-12-21T18:55:50.916Z,-0.23
2018-12-21T18:58:21.975Z,-0.20
2018-12-21T19:00:52.577Z,-0.10
2018-12-21T19:03:23.116Z,-0.05
2018-12-21T19:05:53.409Z,-0.02
2018-12-21T19:08:24.162Z,0.08
2018-12-21T19:10:54.311Z,0.00
2018-12-21T19:13:24.709Z,-0.15
2018-12-21T19:15:55.237Z,-0.17
2018-12-21T19:18:26.682Z,-0.42
2018-12-21T19:20:56.987Z,-0.40
2018-12-21T19:23:27.197Z,-0.45
2018-12-21T19:25:57.454Z,-0.61
2018-12-21T19:28:27.736Z,-0.60
2018-12-21T19:30:58.041Z,-0.69
2018-12-21T19:33:28.175Z,-0.69
2018-12-21T19:35:59.278Z,-0.66
2018-12-21T19:38:29.689Z,-0.58
2018-12-21T19:41:00.073Z,-0.51
2018-12-21T19:43:30.261Z,-0.55
2018-12-21T19:46:01.168Z,-0.65
2018-12-21T19:48:31.492Z,-0.76
2018-12-21T19:51:01.621Z,-0.88
2018-12-21T19:53:32.067Z,-0.86
2018-12-21T19:56:48.414Z,-0.83
2018-12-21T19:59:18.666Z,-0.79
2018-12-21T20:01:50.015Z,-0.81
2018-12-21T20:04:20.556Z,-0.85
2018-12-21T20:06:53.261Z,-0.90
2018-12-21T20:09:23.726Z,-0.91
2018-12-21T20:11:53.909Z,-0.83
2018-12-21T20:14:24.032Z,-0.90
2018-12-21T20:16:54.545Z,-0.88
2018-12-21T20:19:24.869Z,-1.01
2018-12-21T20:21:55.235Z,-0.88
2018-12-21T20:24:28.851Z,-0.83
2018-12-21T20:27:13.079Z,-0.87
2018-12-21T20:29:36.757Z,-0.80
2018-12-21T20:32:07.143Z,-0.93
2018-12-21T20:34:37.431Z,-0.84
2018-12-21T20:37:07.782Z,-0.96
2018-12-21T20:39:40.795Z,-0.89
2018-12-21T20:42:11.177Z,-0.98
2018-12-21T20:44:41.465Z,-1.08
2018-12-21T20:47:11.969Z,-1.03
2018-12-21T20:49:42.399Z,-0.95
2018-12-21T20:52:12.791Z,-1.00
2018-12-21T20:54:42.952Z,-0.98
2018-12-21T20:57:21.656Z,-1.07
2018-12-21T20:59:47.007Z,-1.00
2018-12-21T21:02:17.878Z,-0.90
2018-12-21T21:04:48.110Z,-0.86
2018-12-21T21:07:18.362Z,-0.83
2018-12-21T21:09:48.781Z,-0.91
2018-12-21T21:12:18.991Z,-1.17
2018-12-21T21:14:49.264Z,-1.24
2018-12-21T21:17:19.866Z,-1.03
2018-12-21T21:19:50.018Z,-1.09
2018-12-21T21:22:20.103Z,-1.30
2018-12-21T21:24:50.382Z,-1.31
2018-12-21T21:27:20.567Z,-1.20
2018-12-21T21:29:50.770Z,-1.21
2018-12-21T21:32:21.090Z,-1.29
2018-12-21T21:34:51.491Z,-1.46
2018-12-21T21:37:21.824Z,-1.38
2018-12-21T21:39:51.820Z,-1.38
2018-12-21T21:42:21.985Z,-1.31
2018-12-21T21:44:52.219Z,-1.27
2018-12-21T21:47:22.738Z,-1.24
2018-12-21T21:49:52.861Z,-1.43
2018-12-21T21:52:22.949Z,-1.39
2018-12-21T21:54:53.224Z,-1.27
2018-12-21T21:57:27.361Z,-1.30
2018-12-21T21:59:57.811Z,-1.26
2018-12-21T22:02:28.182Z,-1.24
2018-12-21T22:04:58.431Z,-1.20
2018-12-21T22:07:28.624Z,-1.34
2018-12-21T22:09:59.654Z,-1.49
2018-12-21T22:12:29.832Z,-1.61
2018-12-21T22:15:00.244Z,-1.63
2018-12-21T22:17:30.485Z,-1.63
2018-12-21T22:20:00.762Z,-1.46
2018-12-21T22:22:30.876Z,-1.38
2018-12-21T22:25:01.058Z,-1.38
2018-12-21T22:27:31.261Z,-1.43
2018-12-21T22:30:01.560Z,-1.42
2018-12-21T22:32:31.975Z,-1.55
2018-12-21T22:35:03.033Z,-1.35
2018-12-21T22:37:33.140Z,-1.29
2018-12-21T22:40:03.412Z,-1.17
2018-12-21T22:42:33.644Z,-1.09
2018-12-21T22:45:04.066Z,-1.08
2018-12-21T22:47:34.156Z,-1.02
2018-12-21T22:50:04.765Z,-0.95
2018-12-21T22:52:34.964Z,-0.98
2018-12-21T22:55:05.763Z,-1.05
2018-12-21T22:57:35.954Z,-1.14
2018-12-21T23:00:11.429Z,-1.09
2018-12-21T23:02:42.883Z,-1.17
2018-12-21T23:05:13.130Z,-1.17
2018-12-21T23:07:43.293Z,-1.14
2018-12-21T23:10:13.560Z,-1.06
2018-12-21T23:12:43.939Z,-0.91
2018-12-21T23:15:14.262Z,-0.77
2018-12-21T23:17:44.829Z,-0.69
2018-12-21T23:20:14.968Z,-0.67
2018-12-21T23:22:45.175Z,-0.79
2018-12-21T23:25:15.494Z,-0.81
2018-12-21T23:27:45.584Z,-0.80
2018-12-21T23:30:15.793Z,-0.78
2018-12-21T23:32:46.207Z,-0.74
2018-12-21T23:35:16.362Z,-0.85
2018-12-21T23:37:47.740Z,-0.95
2018-12-21T23:40:17.998Z,-1.00
2018-12-21T23:42:48.170Z,-0.99
2018-12-21T23:45:18.374Z,-1.02
2018-12-21T23:47:48.549Z,-0.98
2018-12-21T23:50:18.766Z,-1.13
2018-12-21T23:52:49.333Z,-1.07
2018-12-21T23:55:19.576Z,-1.18
2018-12-21T23:57:49.819Z,-1.18
